createdAt,value
2022-10-01T00:02:54.608Z,8.70
2022-10-01T00:05:27.805Z,8.50
2022-10-01T00:08:00.183Z,8.40
2022-10-01T00:10:33.069Z,8.40
2022-10-01T00:13:05.435Z,8.70
2022-10-01T00:15:42.460Z,8.60
2022-10-01T00:18:15.051Z,8.50
2022-10-01T00:20:47.136Z,8.50
2022-10-01T00:23:20.282Z,8.70
2022-10-01T00:28:26.576Z,8.40
2022-10-01T00:33:33.301Z,8.20
2022-10-01T00:36:07.726Z,8.20
2022-10-01T00:38:40.932Z,8.30
2022-10-01T00:41:14.486Z,8.30
2022-10-01T00:43:55.209Z,8.30
2022-10-01T00:46:38.739Z,8.20
2022-10-01T00:49:20.185Z,8.30
2022-10-01T00:52:00.527Z,8.20
2022-10-01T00:54:46.335Z,8.20
2022-10-01T00:57:23.104Z,8.20
2022-10-01T00:59:59.953Z,8.20
2022-10-01T01:02:32.940Z,8.20
2022-10-01T01:05:05.998Z,8.20
2022-10-01T01:07:40.615Z,8.20
2022-10-01T01:10:16.974Z,8.50
2022-10-01T01:13:04.067Z,8.60
2022-10-01T01:16:11.598Z,8.60
2022-10-01T01:19:28.906Z,8.90
2022-10-01T01:22:05.494Z,8.90
2022-10-01T01:24:50.610Z,8.70
2022-10-01T01:28:06.807Z,8.60
2022-10-01T01:30:41.362Z,8.50
2022-10-01T01:33:19.371Z,8.60
2022-10-01T01:36:16.315Z,8.70
2022-10-01T01:38:55.274Z,8.60
2022-10-01T01:41:29.491Z,8.50
2022-10-01T01:44:07.340Z,8.60
2022-10-01T01:46:44.324Z,8.50
2022-10-01T01:49:21.928Z,8.70
2022-10-01T01:52:13.451Z,8.80
2022-10-01T01:54:50.028Z,8.80
2022-10-01T01:57:22.281Z,8.90
2022-10-01T01:59:55.514Z,8.80
2022-10-01T02:02:32.938Z,8.80
2022-10-01T02:05:13.884Z,8.70
2022-10-01T02:08:07.663Z,8.70
2022-10-01T02:11:06.332Z,8.70
2022-10-01T02:14:10.462Z,8.60
2022-10-01T02:16:45.989Z,8.70
2022-10-01T02:20:11.097Z,8.80
2022-10-01T02:22:54.441Z,8.90
2022-10-01T02:25:36.328Z,8.90
2022-10-01T02:28:13.788Z,9.00
2022-10-01T02:30:46.981Z,9.10
2022-10-01T02:33:29.141Z,9.20
2022-10-01T02:36:03.977Z,9.00
2022-10-01T02:38:39.614Z,9.00
2022-10-01T02:41:16.591Z,9.20
2022-10-01T02:44:04.615Z,9.20
2022-10-01T02:47:03.620Z,9.70
2022-10-01T02:49:37.745Z,9.70
2022-10-01T02:52:45.898Z,9.80
2022-10-01T02:55:24.701Z,9.60
2022-10-01T02:57:57.188Z,9.60
2022-10-01T03:00:33.470Z,9.80
2022-10-01T03:03:05.789Z,9.80
2022-10-01T03:05:38.509Z,9.60
2022-10-01T03:08:10.827Z,9.40
2022-10-01T03:10:46.580Z,9.30
2022-10-01T03:15:52.002Z,9.50
2022-10-01T03:18:24.740Z,9.60
2022-10-01T03:20:57.773Z,9.90
2022-10-01T03:23:30.019Z,10.30
2022-10-01T03:26:02.296Z,10.40
2022-10-01T03:28:34.635Z,10.60
2022-10-01T03:31:09.083Z,10.70
2022-10-01T03:33:42.533Z,10.70
2022-10-01T03:36:14.822Z,11.10
2022-10-01T03:38:46.693Z,11.50
2022-10-01T03:41:19.427Z,11.60
2022-10-01T03:43:51.421Z,11.80
2022-10-01T03:46:24.145Z,12.00
2022-10-01T03:48:57.651Z,12.20
2022-10-01T03:51:31.975Z,12.30
2022-10-01T03:54:06.200Z,12.50
2022-10-01T03:56:41.223Z,12.60
2022-10-01T03:59:13.553Z,12.80
2022-10-01T04:01:45.551Z,12.90
2022-10-01T04:04:18.430Z,12.90
2022-10-01T04:06:50.779Z,12.80
2022-10-01T04:11:56.066Z,12.70
2022-10-01T04:14:28.767Z,13.00
2022-10-01T04:17:01.137Z,12.90
2022-10-01T04:19:33.037Z,12.90
2022-10-01T04:22:05.765Z,12.90
2022-10-01T04:24:37.601Z,12.90
2022-10-01T04:29:42.468Z,12.90
2022-10-01T04:32:16.468Z,13.00
2022-10-01T04:34:54.266Z,13.00
2022-10-01T04:37:27.824Z,13.10
2022-10-01T04:39:59.663Z,13.10
2022-10-01T04:42:33.031Z,13.10
2022-10-01T04:45:05.609Z,13.20
2022-10-01T04:47:38.413Z,13.30
2022-10-01T04:50:10.247Z,13.30
2022-10-01T04:52:43.140Z,13.40
2022-10-01T04:55:16.902Z,13.40
2022-10-01T04:57:49.825Z,13.50
2022-10-01T05:00:26.496Z,13.40
2022-10-01T05:02:59.405Z,13.50
2022-10-01T05:05:33.025Z,13.40
2022-10-01T05:08:05.805Z,13.40
2022-10-01T05:10:37.758Z,13.50
2022-10-01T05:13:11.567Z,13.60
2022-10-01T05:18:17.444Z,13.50
2022-10-01T05:20:49.718Z,13.50
2022-10-01T05:23:21.668Z,13.50
2022-10-01T05:25:54.427Z,13.60
2022-10-01T05:28:28.111Z,13.50
2022-10-01T05:31:01.963Z,13.50
2022-10-01T05:33:34.679Z,13.40
2022-10-01T05:38:39.651Z,13.30
2022-10-01T05:41:12.327Z,13.10
2022-10-01T05:43:44.629Z,12.80
2022-10-01T05:46:16.517Z,12.70
2022-10-01T05:51:24.145Z,12.40
2022-10-01T05:53:59.466Z,12.40
2022-10-01T05:56:31.349Z,12.00
2022-10-01T05:59:05.042Z,12.00
2022-10-01T06:01:37.487Z,11.90
2022-10-01T06:04:11.168Z,11.90
2022-10-01T06:06:43.008Z,11.60
2022-10-01T06:14:21.660Z,11.50
2022-10-01T06:16:54.633Z,11.70
2022-10-01T06:19:27.436Z,11.60
2022-10-01T06:21:59.779Z,11.60
2022-10-01T06:27:04.777Z,11.60
2022-10-01T06:29:37.344Z,11.50
2022-10-01T06:32:13.862Z,11.60
2022-10-01T06:34:45.888Z,11.50
2022-10-01T06:39:50.962Z,11.60
2022-10-01T06:47:28.997Z,11.50
2022-10-01T06:50:00.858Z,11.40
2022-10-01T06:52:51.624Z,11.60
2022-10-01T06:55:30.152Z,11.60
2022-10-01T06:58:12.026Z,11.50
2022-10-01T07:00:45.508Z,11.60
2022-10-01T07:03:21.350Z,11.60
2022-10-01T07:08:26.006Z,11.70
2022-10-01T07:11:03.077Z,11.70
2022-10-01T07:13:35.194Z,11.70
2022-10-01T07:16:07.467Z,11.70
2022-10-01T07:21:12.562Z,11.80
2022-10-01T07:34:00.633Z,11.70
2022-10-01T07:36:34.456Z,11.60
2022-10-01T07:39:06.399Z,11.60
2022-10-01T07:41:39.337Z,11.60
2022-10-01T07:44:11.837Z,11.70
2022-10-01T07:46:44.246Z,11.70
2022-10-01T07:49:16.795Z,11.70
2022-10-01T07:51:49.552Z,11.60
2022-10-01T07:54:22.517Z,11.60
2022-10-01T07:56:56.254Z,11.70
2022-10-01T08:02:01.026Z,11.70
2022-10-01T08:04:52.074Z,11.70
2022-10-01T08:07:24.473Z,11.70
2022-10-01T08:12:30.844Z,11.90
2022-10-01T08:17:36.180Z,12.00
2022-10-01T08:20:54.169Z,12.10
2022-10-01T08:23:27.121Z,12.20
2022-10-01T08:26:07.156Z,12.30
2022-10-01T08:28:41.367Z,12.40
2022-10-01T08:31:13.200Z,12.40
2022-10-01T08:36:19.162Z,12.60
2022-10-01T08:38:51.882Z,12.70
2022-10-01T08:41:51.980Z,12.80
2022-10-01T08:44:33.517Z,12.80
2022-10-01T08:47:14.001Z,12.80
2022-10-01T08:49:55.918Z,12.80
2022-10-01T08:52:37.536Z,12.60
2022-10-01T08:55:27.139Z,12.50
2022-10-01T08:58:05.114Z,12.60
2022-10-01T09:00:43.530Z,11.10
2022-10-01T09:03:15.881Z,12.70
2022-10-01T09:06:05.941Z,12.90
2022-10-01T09:09:29.844Z,12.90
2022-10-01T09:12:40.487Z,13.10
2022-10-01T09:15:33.462Z,13.20
2022-10-01T09:18:34.430Z,13.20
2022-10-01T09:21:27.154Z,13.30
2022-10-01T09:24:16.995Z,13.30
2022-10-01T09:26:49.078Z,13.40
2022-10-01T09:29:39.832Z,13.50
2022-10-01T09:32:18.380Z,13.50
2022-10-01T09:34:52.506Z,13.50
2022-10-01T09:37:45.335Z,13.50
2022-10-01T09:40:25.885Z,13.50
2022-10-01T09:42:57.845Z,13.50
2022-10-01T09:45:30.418Z,13.50
2022-10-01T09:48:16.181Z,13.50
2022-10-01T09:50:58.148Z,13.50
2022-10-01T09:53:41.301Z,13.50
2022-10-01T09:56:30.520Z,13.50
2022-10-01T09:59:07.658Z,13.30
2022-10-01T10:01:59.420Z,13.30
2022-10-01T10:04:31.567Z,13.10
2022-10-01T10:07:05.863Z,13.10
2022-10-01T10:09:38.043Z,13.00
2022-10-01T10:12:29.588Z,13.00
2022-10-01T10:15:09.958Z,13.00
2022-10-01T10:18:35.622Z,12.90
2022-10-01T10:21:21.465Z,13.00
2022-10-01T10:24:01.171Z,13.10
2022-10-01T10:26:39.112Z,13.20
2022-10-01T10:29:37.126Z,13.20
2022-10-01T10:32:25.588Z,13.20
2022-10-01T10:35:04.664Z,13.40
2022-10-01T10:37:45.644Z,13.40
2022-10-01T10:40:25.735Z,13.40
2022-10-01T10:43:01.098Z,13.50
2022-10-01T10:45:37.962Z,13.60
2022-10-01T10:48:17.651Z,13.70
2022-10-01T10:50:50.082Z,13.70
2022-10-01T10:53:26.553Z,13.80
2022-10-01T10:56:01.772Z,13.80
2022-10-01T10:58:40.481Z,13.90
2022-10-01T11:01:18.677Z,14.00
2022-10-01T11:03:56.572Z,14.00
2022-10-01T11:09:11.661Z,14.00
2022-10-01T11:12:05.143Z,14.00
2022-10-01T11:15:35.526Z,14.00
2022-10-01T11:18:35.200Z,14.00
2022-10-01T11:21:28.513Z,14.00
2022-10-01T11:24:07.858Z,14.00
2022-10-01T11:27:01.507Z,14.00
2022-10-01T11:30:01.678Z,10.60
2022-10-01T11:32:45.392Z,14.00
2022-10-01T11:35:26.907Z,14.10
2022-10-01T11:38:30.339Z,14.10
2022-10-01T11:41:38.416Z,14.10
2022-10-01T11:44:18.478Z,14.10
2022-10-01T11:47:27.624Z,14.00
2022-10-01T11:50:18.776Z,14.00
2022-10-01T11:52:59.393Z,14.10
2022-10-01T11:55:58.650Z,14.00
2022-10-01T11:58:51.280Z,14.10
2022-10-01T12:01:42.523Z,13.90
2022-10-01T12:04:39.340Z,14.00
2022-10-01T12:07:26.795Z,14.00
2022-10-01T12:10:23.807Z,14.00
2022-10-01T12:15:37.842Z,14.10
2022-10-01T12:18:32.115Z,14.20
2022-10-01T12:21:12.001Z,14.10
2022-10-01T12:24:11.490Z,14.10
2022-10-01T12:27:30.736Z,14.20
2022-10-01T12:30:11.917Z,14.30
2022-10-01T12:33:22.351Z,14.30
2022-10-01T12:35:57.526Z,14.20
2022-10-01T12:39:03.757Z,14.20
2022-10-01T12:42:14.410Z,14.30
2022-10-01T12:45:13.415Z,14.30
2022-10-01T12:48:04.564Z,14.30
2022-10-01T12:51:02.747Z,14.30
2022-10-01T12:54:13.368Z,14.30
2022-10-01T12:57:00.980Z,14.40
2022-10-01T12:59:57.562Z,14.40
2022-10-01T13:03:12.531Z,14.40
2022-10-01T13:06:13.621Z,14.50
2022-10-01T13:08:51.622Z,14.50
2022-10-01T13:11:38.356Z,14.50
2022-10-01T13:14:16.951Z,14.50
2022-10-01T13:17:06.643Z,14.60
2022-10-01T13:23:07.318Z,14.50
2022-10-01T13:26:00.871Z,14.50
2022-10-01T13:29:11.986Z,14.50
2022-10-01T13:32:02.362Z,14.40
2022-10-01T13:34:40.926Z,14.50
2022-10-01T13:37:32.356Z,14.40
2022-10-01T13:40:20.808Z,14.40
2022-10-01T13:43:00.641Z,14.40
2022-10-01T13:45:51.695Z,14.40
2022-10-01T13:48:29.326Z,14.40
2022-10-01T13:51:09.394Z,14.40
2022-10-01T13:53:41.231Z,14.40
2022-10-01T13:56:37.446Z,14.50
2022-10-01T13:59:35.717Z,14.50
2022-10-01T14:02:38.209Z,14.40
2022-10-01T14:05:40.957Z,14.40
2022-10-01T14:08:28.594Z,14.40
2022-10-01T14:11:44.138Z,14.40
2022-10-01T14:14:54.912Z,14.50
2022-10-01T14:17:31.953Z,14.40
2022-10-01T14:20:05.405Z,14.50
2022-10-01T14:23:19.901Z,14.50
2022-10-01T14:26:51.928Z,14.40
2022-10-01T14:29:30.284Z,14.50
2022-10-01T14:32:14.441Z,14.50
2022-10-01T14:35:29.833Z,14.50
2022-10-01T14:38:12.159Z,14.50
2022-10-01T14:40:48.671Z,14.50
2022-10-01T14:43:31.055Z,14.50
2022-10-01T14:46:06.387Z,14.50
2022-10-01T14:51:29.156Z,14.50
2022-10-01T14:54:01.516Z,14.60
2022-10-01T14:56:34.576Z,14.60
2022-10-01T14:59:17.636Z,14.70
2022-10-01T15:02:02.824Z,14.70
2022-10-01T15:04:35.289Z,14.70
2022-10-01T15:07:14.390Z,14.70
2022-10-01T15:09:47.982Z,14.80
2022-10-01T15:12:23.278Z,14.70
2022-10-01T15:20:01.257Z,14.80
2022-10-01T15:22:33.436Z,14.80
2022-10-01T15:25:06.746Z,14.60
2022-10-01T15:27:41.119Z,14.80
2022-10-01T15:30:18.442Z,14.80
2022-10-01T15:32:51.075Z,14.80
2022-10-01T15:35:24.365Z,14.80
2022-10-01T15:38:00.414Z,14.90
2022-10-01T15:40:36.721Z,14.90
2022-10-01T15:43:23.614Z,14.90
2022-10-01T15:46:05.151Z,14.90
2022-10-01T15:51:23.893Z,14.80
2022-10-01T15:54:09.052Z,14.90
2022-10-01T15:56:42.051Z,14.80
2022-10-01T15:59:19.752Z,14.80
2022-10-01T16:01:51.840Z,14.90
2022-10-01T16:04:24.548Z,14.90
2022-10-01T16:06:56.420Z,14.80
2022-10-01T16:09:29.960Z,14.90
2022-10-01T16:12:11.836Z,14.90
2022-10-01T16:14:58.140Z,14.90
2022-10-01T16:17:35.687Z,15.00
2022-10-01T16:20:17.207Z,14.90
2022-10-01T16:25:25.110Z,14.90
2022-10-01T16:30:34.043Z,14.90
2022-10-01T16:33:06.973Z,15.00
2022-10-01T16:35:43.139Z,15.00
2022-10-01T16:38:15.642Z,15.00
2022-10-01T16:40:48.282Z,15.00
2022-10-01T16:43:24.731Z,15.00
2022-10-01T16:45:59.172Z,15.00
2022-10-01T16:48:31.120Z,15.00
2022-10-01T16:51:03.431Z,15.10
2022-10-01T16:53:35.610Z,15.00
2022-10-01T16:56:08.981Z,14.90
2022-10-01T16:58:43.046Z,15.00
2022-10-01T17:01:16.144Z,14.90
2022-10-01T17:03:48.046Z,14.90
2022-10-01T17:06:21.266Z,14.90
2022-10-01T17:11:27.821Z,14.90
2022-10-01T17:19:06.810Z,15.00
2022-10-01T17:21:39.722Z,15.00
2022-10-01T17:24:12.154Z,15.00
2022-10-01T17:26:45.655Z,15.10
2022-10-01T17:31:53.407Z,15.00
2022-10-01T17:34:26.065Z,15.00
2022-10-01T17:37:00.070Z,15.00
2022-10-01T17:42:07.055Z,14.90
2022-10-01T17:44:38.941Z,14.90
2022-10-01T17:47:11.456Z,14.90
2022-10-01T17:49:43.656Z,14.90
2022-10-01T17:54:48.609Z,14.90
2022-10-01T17:59:54.970Z,14.90
2022-10-01T18:02:41.669Z,14.90
2022-10-01T18:05:15.194Z,14.90
2022-10-01T18:07:48.025Z,14.90
2022-10-01T18:10:20.023Z,15.00
2022-10-01T18:12:53.012Z,14.90
2022-10-01T18:15:25.363Z,14.90
2022-10-01T18:18:58.721Z,15.00
2022-10-01T18:20:49.908Z,14.90
2022-10-01T18:23:22.719Z,14.90
2022-10-01T18:25:55.059Z,14.80
2022-10-01T18:28:27.505Z,15.00
2022-10-01T18:31:27.024Z,15.00
2022-10-01T18:34:03.696Z,15.00
2022-10-01T18:37:05.300Z,15.00
2022-10-01T18:39:43.963Z,15.10
2022-10-01T18:42:29.709Z,14.90
2022-10-01T18:45:06.830Z,15.10
2022-10-01T18:50:24.539Z,15.10
2022-10-01T18:53:15.521Z,15.10
2022-10-01T18:56:36.303Z,15.10
2022-10-01T18:59:47.038Z,15.20
2022-10-01T19:02:49.445Z,15.30
2022-10-01T19:05:52.147Z,15.30
2022-10-01T19:08:26.720Z,15.30
2022-10-01T19:11:15.764Z,15.40
2022-10-01T19:14:10.883Z,15.40
2022-10-01T19:16:58.289Z,15.40
2022-10-01T19:19:54.160Z,15.40
2022-10-01T19:22:59.962Z,15.40
2022-10-01T19:25:49.643Z,15.40
2022-10-01T19:28:54.160Z,15.40
2022-10-01T19:31:44.192Z,15.40
2022-10-01T19:34:34.133Z,15.40
2022-10-01T19:37:27.930Z,15.40
2022-10-01T19:40:25.903Z,15.40
2022-10-01T19:43:18.575Z,15.40
2022-10-01T19:46:16.462Z,15.40
2022-10-01T19:49:27.935Z,15.40
2022-10-01T19:52:03.804Z,15.40
2022-10-01T19:54:49.051Z,15.40
2022-10-01T19:57:27.800Z,15.40
2022-10-01T20:00:23.561Z,15.40
2022-10-01T20:03:11.366Z,15.40
2022-10-01T20:05:51.113Z,15.40
2022-10-01T20:08:36.679Z,15.40
2022-10-01T20:11:13.988Z,15.40
2022-10-01T20:14:34.418Z,15.30
2022-10-01T20:17:36.571Z,15.40
2022-10-01T20:21:04.851Z,15.30
2022-10-01T20:23:47.508Z,15.30
2022-10-01T20:26:30.474Z,15.30
2022-10-01T20:29:19.901Z,15.30
2022-10-01T20:32:33.321Z,15.30
2022-10-01T20:35:30.259Z,15.30
2022-10-01T20:41:00.608Z,15.30
2022-10-01T20:43:51.794Z,15.30
2022-10-01T20:46:38.030Z,15.30
2022-10-01T20:49:56.131Z,15.30
2022-10-01T20:52:47.704Z,15.30
2022-10-01T20:55:29.542Z,15.30
2022-10-01T20:58:11.486Z,15.30
2022-10-01T21:00:46.414Z,15.40
2022-10-01T21:03:31.774Z,15.40
2022-10-01T21:06:13.004Z,15.40
2022-10-01T21:08:57.230Z,15.40
2022-10-01T21:11:40.055Z,15.50
2022-10-01T21:14:22.830Z,15.50
2022-10-01T21:17:19.482Z,15.50
2022-10-01T21:20:16.991Z,15.50
2022-10-01T21:23:13.699Z,15.60
2022-10-01T21:25:54.269Z,15.60
2022-10-01T21:29:07.613Z,15.60
2022-10-01T21:32:04.708Z,15.60
2022-10-01T21:35:06.208Z,15.50
2022-10-01T21:37:55.858Z,15.50
2022-10-01T21:40:52.575Z,15.50
2022-10-01T21:43:46.598Z,15.40
2022-10-01T21:46:32.437Z,15.40
2022-10-01T21:49:43.790Z,15.50
2022-10-01T21:52:29.173Z,15.40
2022-10-01T21:55:51.431Z,15.50
2022-10-01T21:58:29.657Z,15.50
2022-10-01T22:01:16.749Z,15.50
2022-10-01T22:03:59.419Z,15.50
2022-10-01T22:06:42.110Z,15.50
2022-10-01T22:09:30.006Z,15.60
2022-10-01T22:12:03.678Z,15.50
2022-10-01T22:14:36.545Z,15.60
2022-10-01T22:17:23.094Z,15.60
2022-10-01T22:20:00.395Z,15.60
2022-10-01T22:22:38.493Z,15.60
2022-10-01T22:25:14.075Z,15.60
2022-10-01T22:27:57.896Z,15.60
2022-10-01T22:30:35.750Z,15.60
2022-10-01T22:33:26.783Z,15.60
2022-10-01T22:36:15.132Z,15.50
2022-10-01T22:38:55.456Z,15.50
2022-10-01T22:41:46.684Z,15.40
2022-10-01T22:44:21.425Z,15.40
2022-10-01T22:47:21.793Z,15.40
2022-10-01T22:50:34.122Z,15.30
2022-10-01T22:53:33.738Z,15.30
2022-10-01T22:56:06.615Z,15.20
2022-10-01T22:59:11.434Z,15.20
2022-10-01T23:01:58.148Z,15.30
2022-10-01T23:04:30.629Z,15.20
2022-10-01T23:07:23.702Z,15.20
2022-10-01T23:10:10.529Z,15.20
2022-10-01T23:13:05.122Z,15.20
2022-10-01T23:15:46.314Z,15.20
2022-10-01T23:18:57.491Z,15.10
2022-10-01T23:22:00.425Z,15.10
2022-10-01T23:24:47.281Z,15.20
2022-10-01T23:27:53.101Z,15.20
2022-10-01T23:30:25.418Z,15.10
2022-10-01T23:33:25.364Z,15.10
2022-10-01T23:36:00.753Z,15.10
2022-10-01T23:38:48.929Z,15.10
2022-10-01T23:41:36.655Z,15.20
2022-10-01T23:44:23.529Z,15.30
2022-10-01T23:46:59.873Z,15.40
2022-10-01T23:49:37.605Z,15.30
2022-10-01T23:52:30.618Z,15.40
2022-10-01T23:55:33.607Z,15.40
2022-10-01T23:58:11.352Z,15.40
